createdAt,value
2019-01-04T00:01:38.640Z,86.21
2019-01-04T00:04:06.280Z,86.11
2019-01-04T00:06:34.177Z,86.11
2019-01-04T00:09:01.816Z,86.01
2019-01-04T00:11:29.426Z,85.91
2019-01-04T00:13:57.672Z,85.85
2019-01-04T00:16:25.290Z,85.94
2019-01-04T00:18:53.203Z,85.89
2019-01-04T00:21:21.171Z,85.77
2019-01-04T00:23:49.139Z,85.58
2019-01-04T00:26:16.775Z,85.42
2019-01-04T00:28:44.410Z,85.60
2019-01-04T00:31:12.038Z,85.95
2019-01-04T00:33:39.998Z,85.82
2019-01-04T00:36:07.619Z,85.75
2019-01-04T00:38:35.526Z,86.12
2019-01-04T00:41:03.147Z,86.30
2019-01-04T00:43:31.065Z,86.13
2019-01-04T00:45:58.679Z,86.19
2019-01-04T00:48:26.582Z,86.38
2019-01-04T00:50:54.556Z,86.22
2019-01-04T00:53:22.200Z,86.13
2019-01-04T00:55:49.820Z,86.28
2019-01-04T00:58:17.447Z,86.32
2019-01-04T01:00:45.408Z,86.26
2019-01-04T01:03:13.380Z,86.11
2019-01-04T01:05:41.321Z,86.26
2019-01-04T01:08:09.235Z,86.16
2019-01-04T01:10:36.861Z,86.01
2019-01-04T01:13:04.483Z,85.87
2019-01-04T01:15:32.510Z,85.68
2019-01-04T01:18:00.481Z,85.58
2019-01-04T01:20:28.450Z,85.93
2019-01-04T01:22:56.418Z,86.01
2019-01-04T01:25:24.387Z,85.95
2019-01-04T01:27:52.359Z,85.87
2019-01-04T01:30:20.329Z,86.08
2019-01-04T01:32:48.297Z,86.00
2019-01-04T01:35:16.268Z,85.82
2019-01-04T01:37:44.235Z,85.88
2019-01-04T01:40:11.859Z,85.95
2019-01-04T01:42:39.768Z,85.74
2019-01-04T01:45:07.391Z,85.43
2019-01-04T01:47:35.295Z,85.90
2019-01-04T01:50:02.932Z,86.11
2019-01-04T01:52:30.833Z,85.79
2019-01-04T01:54:58.454Z,85.89
2019-01-04T01:57:26.084Z,86.00
2019-01-04T01:59:54.020Z,85.75
2019-01-04T02:02:21.988Z,85.75
2019-01-04T02:04:49.625Z,85.74
2019-01-04T02:07:17.579Z,85.70
2019-01-04T02:09:45.493Z,85.68
2019-01-04T02:12:13.454Z,85.85
2019-01-04T02:14:41.430Z,85.44
2019-01-04T02:17:09.395Z,85.42
2019-01-04T02:19:37.364Z,85.71
2019-01-04T02:22:05.340Z,85.80
2019-01-04T02:24:33.305Z,85.87
2019-01-04T02:27:00.937Z,86.12
2019-01-04T02:29:28.570Z,86.53
2019-01-04T02:31:56.497Z,86.73
2019-01-04T02:34:24.469Z,87.06
2019-01-04T02:36:52.093Z,86.95
2019-01-04T02:39:20.013Z,86.70
2019-01-04T02:41:47.966Z,86.66
2019-01-04T02:44:15.934Z,86.49
2019-01-04T02:46:43.564Z,86.24
2019-01-04T02:49:11.469Z,86.28
2019-01-04T02:51:39.453Z,86.27
2019-01-04T02:54:07.408Z,86.06
2019-01-04T02:56:35.036Z,86.08
2019-01-04T02:59:02.934Z,86.38
2019-01-04T03:01:30.566Z,86.42
2019-01-04T03:03:58.468Z,86.26
2019-01-04T03:06:26.117Z,86.04
2019-01-04T03:08:53.743Z,85.65
2019-01-04T03:11:21.655Z,85.40
2019-01-04T03:13:49.278Z,85.26
2019-01-04T03:16:17.189Z,85.27
2019-01-04T03:18:44.821Z,85.36
2019-01-04T03:21:12.715Z,85.35
2019-01-04T03:23:40.682Z,85.36
2019-01-04T03:26:08.655Z,85.33
2019-01-04T03:28:36.624Z,85.17
2019-01-04T03:31:04.253Z,85.01
2019-01-04T03:33:31.888Z,84.90
2019-01-04T03:35:59.524Z,84.90
2019-01-04T03:38:27.480Z,85.08
2019-01-04T03:40:55.454Z,84.90
2019-01-04T03:43:23.414Z,84.88
2019-01-04T03:45:51.389Z,84.93
2019-01-04T03:48:19.013Z,84.98
2019-01-04T03:50:46.651Z,85.09
2019-01-04T03:53:14.285Z,85.19
2019-01-04T03:55:42.241Z,85.11
2019-01-04T03:58:10.212Z,85.17
2019-01-04T04:00:37.844Z,85.31
2019-01-04T04:03:05.739Z,85.24
2019-01-04T04:05:33.380Z,85.43
2019-01-04T04:08:01.010Z,85.59
2019-01-04T04:10:28.954Z,85.70
2019-01-04T04:12:56.663Z,85.71
2019-01-04T04:15:24.364Z,85.68
2019-01-04T04:17:52.348Z,85.84
2019-01-04T04:20:20.301Z,85.73
2019-01-04T04:22:48.289Z,85.70
2019-01-04T04:25:16.019Z,85.80
2019-01-04T04:27:44.002Z,85.70
2019-01-04T04:30:11.990Z,85.52
2019-01-04T04:32:39.939Z,85.64
2019-01-04T04:35:07.652Z,85.45
2019-01-04T04:37:35.571Z,85.50
2019-01-04T04:40:03.207Z,85.39
2019-01-04T04:42:31.101Z,85.33
2019-01-04T04:44:58.732Z,85.55
2019-01-04T04:47:26.634Z,85.56
2019-01-04T04:49:54.256Z,85.52
2019-01-04T04:52:21.960Z,85.53
2019-01-04T04:54:49.932Z,85.50
2019-01-04T04:57:17.572Z,85.40
2019-01-04T04:59:45.274Z,85.54
2019-01-04T05:02:12.918Z,85.56
2019-01-04T05:04:40.557Z,85.58
2019-01-04T05:07:08.553Z,85.69
2019-01-04T05:09:36.184Z,85.58
2019-01-04T05:12:03.882Z,85.30
2019-01-04T05:14:31.513Z,85.56
2019-01-04T05:16:59.406Z,85.73
2019-01-04T05:19:27.037Z,85.59
2019-01-04T05:21:54.932Z,85.73
2019-01-04T05:24:22.554Z,85.98
2019-01-04T05:26:50.464Z,86.20
2019-01-04T05:29:18.106Z,86.10
2019-01-04T05:31:46.093Z,86.05
2019-01-04T05:34:14.081Z,86.15
2019-01-04T05:36:42.035Z,86.14
2019-01-04T05:39:09.999Z,85.95
2019-01-04T05:41:37.970Z,86.13
2019-01-04T05:44:05.941Z,86.42
2019-01-04T05:46:33.910Z,86.57
2019-01-04T05:49:01.880Z,86.76
2019-01-04T05:51:29.516Z,86.63
2019-01-04T05:53:57.410Z,86.69
2019-01-04T05:56:25.378Z,86.70
2019-01-04T05:58:53.350Z,86.68
2019-01-04T06:01:20.989Z,86.80
2019-01-04T06:03:49.029Z,86.84
2019-01-04T06:06:16.947Z,86.91
2019-01-04T06:08:44.918Z,87.28
2019-01-04T06:11:12.548Z,87.51
2019-01-04T06:13:40.449Z,87.47
2019-01-04T06:16:08.424Z,87.42
2019-01-04T06:18:36.058Z,87.62
2019-01-04T06:21:03.696Z,87.72
2019-01-04T06:23:31.328Z,87.90
2019-01-04T06:25:59.275Z,87.82
2019-01-04T06:28:27.241Z,87.74
2019-01-04T06:30:55.213Z,87.80
2019-01-04T06:33:23.182Z,87.77
2019-01-04T06:35:51.167Z,87.74
2019-01-04T06:38:19.120Z,87.76
2019-01-04T06:40:47.098Z,88.03
2019-01-04T06:43:14.734Z,87.99
2019-01-04T06:45:42.726Z,87.98
2019-01-04T06:48:10.692Z,87.98
2019-01-04T06:50:38.659Z,88.11
2019-01-04T06:53:06.290Z,88.05
2019-01-04T06:55:33.925Z,88.26
2019-01-04T06:58:01.552Z,88.30
2019-01-04T07:00:29.185Z,88.48
2019-01-04T07:02:57.185Z,88.48
2019-01-04T07:05:25.147Z,88.42
2019-01-04T07:07:52.790Z,88.25
2019-01-04T07:10:20.428Z,88.25
2019-01-04T07:12:48.345Z,88.29
2019-01-04T07:15:16.012Z,88.32
2019-01-04T07:17:43.971Z,88.40
2019-01-04T07:20:11.606Z,88.41
2019-01-04T07:22:39.506Z,88.39
2019-01-04T07:25:07.485Z,88.38
2019-01-04T07:27:35.122Z,88.29
2019-01-04T07:30:03.103Z,88.29
2019-01-04T07:32:30.759Z,88.19
2019-01-04T07:34:58.763Z,88.11
2019-01-04T07:37:26.398Z,88.10
2019-01-04T07:39:54.369Z,88.06
2019-01-04T07:42:22.019Z,87.95
2019-01-04T07:44:49.657Z,87.78
2019-01-04T07:47:17.297Z,87.74
2019-01-04T07:49:45.220Z,87.83
2019-01-04T07:52:12.865Z,87.84
2019-01-04T07:54:40.871Z,88.09
2019-01-04T07:57:08.821Z,88.26
2019-01-04T07:59:36.796Z,88.31
2019-01-04T08:02:04.511Z,88.29
2019-01-04T08:04:32.426Z,88.25
2019-01-04T08:07:00.066Z,88.31
2019-01-04T08:09:28.061Z,88.13
2019-01-04T08:11:55.692Z,87.89
2019-01-04T08:14:23.588Z,87.89
2019-01-04T08:16:51.574Z,87.76
2019-01-04T08:19:19.527Z,87.98
2019-01-04T08:21:47.165Z,87.92
2019-01-04T08:24:14.794Z,88.24
2019-01-04T08:26:42.725Z,87.89
2019-01-04T08:29:10.809Z,87.55
2019-01-04T08:31:38.578Z,87.47
2019-01-04T08:34:06.525Z,87.37
2019-01-04T08:36:34.495Z,87.03
2019-01-04T08:39:02.470Z,87.15
2019-01-04T08:41:30.435Z,87.06
2019-01-04T08:43:58.404Z,86.96
2019-01-04T08:46:26.379Z,86.86
2019-01-04T08:48:54.347Z,86.83
2019-01-04T08:51:21.988Z,86.09
2019-01-04T08:53:49.620Z,85.93
2019-01-04T08:56:17.246Z,85.84
2019-01-04T08:58:45.203Z,85.35
2019-01-04T09:01:12.891Z,84.58
2019-01-04T09:03:40.860Z,83.86
2019-01-04T09:06:08.800Z,83.90
2019-01-04T09:08:36.769Z,83.89
2019-01-04T09:11:04.741Z,83.94
2019-01-04T09:13:32.729Z,83.42
2019-01-04T09:16:00.361Z,84.25
2019-01-04T09:18:28.345Z,84.75
2019-01-04T09:20:55.975Z,84.15
2019-01-04T09:23:23.874Z,84.06
2019-01-04T09:25:51.842Z,82.87
2019-01-04T09:28:19.480Z,83.00
2019-01-04T09:30:47.116Z,82.99
2019-01-04T09:33:15.043Z,83.46
2019-01-04T09:35:42.658Z,83.29
2019-01-04T09:38:10.664Z,83.03
2019-01-04T09:40:38.648Z,84.21
2019-01-04T09:43:06.598Z,84.25
2019-01-04T09:45:34.571Z,84.21
2019-01-04T09:48:02.560Z,84.30
2019-01-04T09:50:30.210Z,84.42
2019-01-04T09:52:58.171Z,84.42
2019-01-04T09:55:26.139Z,84.25
2019-01-04T09:57:53.783Z,84.66
2019-01-04T10:00:21.671Z,84.56
2019-01-04T10:02:49.317Z,84.91
2019-01-04T10:05:16.952Z,85.16
2019-01-04T10:07:44.864Z,85.20
2019-01-04T10:10:12.677Z,84.92
2019-01-04T10:12:40.631Z,84.30
2019-01-04T10:15:08.255Z,84.05
2019-01-04T10:17:36.230Z,83.92
2019-01-04T10:20:04.215Z,83.83
2019-01-04T10:22:31.846Z,83.26
2019-01-04T10:24:59.482Z,83.48
2019-01-04T10:27:27.389Z,82.48
2019-01-04T10:29:55.019Z,81.90
2019-01-04T10:32:22.918Z,81.87
2019-01-04T10:34:50.892Z,81.85
2019-01-04T10:37:18.518Z,82.24
2019-01-04T10:39:46.423Z,81.86
2019-01-04T10:42:14.044Z,81.92
2019-01-04T10:44:41.949Z,81.86
2019-01-04T10:47:09.585Z,82.07
2019-01-04T10:49:37.212Z,82.06
2019-01-04T10:52:05.148Z,82.21
2019-01-04T10:54:33.117Z,82.18
2019-01-04T10:57:00.738Z,82.33
2019-01-04T10:59:28.376Z,82.25
2019-01-04T11:01:56.308Z,82.52
2019-01-04T11:04:24.272Z,82.46
2019-01-04T11:06:52.554Z,82.12
2019-01-04T11:09:20.515Z,81.68
2019-01-04T11:11:48.140Z,81.34
2019-01-04T11:14:16.048Z,81.37
2019-01-04T11:16:44.021Z,81.15
2019-01-04T11:19:11.993Z,80.79
2019-01-04T11:21:39.613Z,80.99
2019-01-04T11:24:07.517Z,81.06
2019-01-04T11:26:35.487Z,80.61
2019-01-04T11:29:03.461Z,80.37
2019-01-04T11:31:31.430Z,79.73
2019-01-04T11:33:59.065Z,79.55
2019-01-04T11:36:26.695Z,79.56
2019-01-04T11:38:55.157Z,79.62
2019-01-04T11:41:22.780Z,79.51
2019-01-04T11:43:50.765Z,79.05
2019-01-04T11:46:18.513Z,79.27
2019-01-04T11:48:46.392Z,78.77
2019-01-04T11:51:14.018Z,78.82
2019-01-04T11:53:42.456Z,78.41
2019-01-04T11:56:10.401Z,79.16
2019-01-04T11:58:38.374Z,78.80
2019-01-04T12:01:06.343Z,78.77
2019-01-04T12:03:33.972Z,79.78
2019-01-04T12:06:01.594Z,79.83
2019-01-04T12:08:29.535Z,80.13
2019-01-04T12:10:57.508Z,80.24
2019-01-04T12:13:25.168Z,80.23
2019-01-04T12:15:52.789Z,80.13
2019-01-04T12:18:20.694Z,80.58
2019-01-04T12:20:48.331Z,80.85
2019-01-04T12:23:16.017Z,80.29
2019-01-04T12:25:43.614Z,80.53
2019-01-04T12:28:11.567Z,80.89
2019-01-04T12:30:39.203Z,80.25
2019-01-04T12:33:07.082Z,80.25
2019-01-04T12:35:34.720Z,80.89
2019-01-04T12:38:02.359Z,80.71
2019-01-04T12:40:29.988Z,80.81
2019-01-04T12:42:57.619Z,81.27
2019-01-04T12:45:25.605Z,81.17
2019-01-04T12:47:53.567Z,81.22
2019-01-04T12:50:21.201Z,81.67
2019-01-04T12:52:48.830Z,81.81
2019-01-04T12:55:16.758Z,81.81
2019-01-04T12:57:44.729Z,81.81
2019-01-04T13:00:12.549Z,82.00
2019-01-04T13:02:40.472Z,82.06
2019-01-04T13:05:08.431Z,82.28
2019-01-04T13:07:36.127Z,82.72
2019-01-04T13:10:03.765Z,83.11
2019-01-04T13:12:31.743Z,83.24
2019-01-04T13:14:59.701Z,83.61
2019-01-04T13:17:27.668Z,84.39
2019-01-04T13:19:55.317Z,85.00
2019-01-04T13:22:23.195Z,85.06
2019-01-04T13:24:51.169Z,85.13
2019-01-04T13:27:19.145Z,85.07
2019-01-04T13:29:46.783Z,84.54
2019-01-04T13:32:14.766Z,84.33
2019-01-04T13:34:42.778Z,84.16
2019-01-04T13:37:10.809Z,83.65
2019-01-04T13:39:38.782Z,83.35
2019-01-04T13:42:06.746Z,83.77
2019-01-04T13:44:34.720Z,83.53
2019-01-04T13:47:02.691Z,83.34
2019-01-04T13:49:30.673Z,83.64
2019-01-04T13:51:58.629Z,83.68
2019-01-04T13:54:26.604Z,83.43
2019-01-04T13:56:54.227Z,83.46
2019-01-04T13:59:22.127Z,83.40
2019-01-04T14:01:49.754Z,83.58
2019-01-04T14:04:17.378Z,83.75
2019-01-04T14:06:45.315Z,83.72
2019-01-04T14:09:13.287Z,83.46
2019-01-04T14:11:41.258Z,83.63
2019-01-04T14:14:08.890Z,84.03
2019-01-04T14:16:36.795Z,84.25
2019-01-04T14:19:04.755Z,84.92
2019-01-04T14:21:32.432Z,85.39
2019-01-04T14:24:00.019Z,85.53
2019-01-04T14:26:27.655Z,85.84
2019-01-04T14:28:55.612Z,85.91
2019-01-04T14:31:23.239Z,85.38
2019-01-04T14:33:51.142Z,85.05
2019-01-04T14:36:19.111Z,85.10
2019-01-04T14:38:46.750Z,85.19
2019-01-04T14:41:14.402Z,85.21
2019-01-04T14:43:42.027Z,85.36
2019-01-04T14:46:09.666Z,84.86
2019-01-04T14:48:37.291Z,85.20
2019-01-04T14:51:05.530Z,84.95
2019-01-04T14:53:33.179Z,85.12
2019-01-04T14:56:01.150Z,85.33
2019-01-04T14:58:29.095Z,85.51
2019-01-04T15:00:56.728Z,85.66
2019-01-04T15:03:24.350Z,86.18
2019-01-04T15:05:52.310Z,86.12
2019-01-04T15:08:20.256Z,86.22
2019-01-04T15:10:48.226Z,86.43
2019-01-04T15:13:16.193Z,86.55
2019-01-04T15:15:43.819Z,86.30
2019-01-04T15:18:11.727Z,86.14
2019-01-04T15:20:39.358Z,85.94
2019-01-04T15:23:07.054Z,85.86
2019-01-04T15:25:35.023Z,85.32
2019-01-04T15:28:02.986Z,85.53
2019-01-04T15:30:30.619Z,85.56
2019-01-04T15:32:58.236Z,85.54
2019-01-04T15:35:26.185Z,85.13
2019-01-04T15:37:54.148Z,84.91
2019-01-04T15:40:22.120Z,84.85
2019-01-04T15:42:49.811Z,84.43
2019-01-04T15:45:17.477Z,84.37
2019-01-04T15:47:45.416Z,84.14
2019-01-04T15:50:13.388Z,83.97
2019-01-04T15:52:41.015Z,84.25
2019-01-04T15:55:08.639Z,84.29
2019-01-04T15:57:36.581Z,84.52
2019-01-04T16:00:04.546Z,84.57
2019-01-04T16:02:32.515Z,84.60
2019-01-04T16:05:00.500Z,84.55
2019-01-04T16:07:28.459Z,84.43
2019-01-04T16:09:56.089Z,84.31
2019-01-04T16:12:23.990Z,84.56
2019-01-04T16:14:51.953Z,84.62
2019-01-04T16:17:19.943Z,84.67
2019-01-04T16:19:47.568Z,84.42
2019-01-04T16:22:15.198Z,84.40
2019-01-04T16:24:42.829Z,84.72
2019-01-04T16:27:10.544Z,84.93
2019-01-04T16:29:38.165Z,84.99
2019-01-04T16:32:05.805Z,85.27
2019-01-04T16:34:33.773Z,85.27
2019-01-04T16:37:01.738Z,85.29
2019-01-04T16:39:29.708Z,85.24
2019-01-04T16:41:57.675Z,85.17
2019-01-04T16:44:25.301Z,85.37
2019-01-04T16:46:53.209Z,85.37
2019-01-04T16:49:21.175Z,85.28
2019-01-04T16:51:48.810Z,85.37
2019-01-04T16:54:16.705Z,85.22
2019-01-04T16:56:44.674Z,85.35
2019-01-04T16:59:12.642Z,85.63
2019-01-04T17:01:40.610Z,85.76
2019-01-04T17:04:08.583Z,85.84
2019-01-04T17:06:36.550Z,85.96
2019-01-04T17:09:04.826Z,85.85
2019-01-04T17:11:32.799Z,85.96
2019-01-04T17:14:00.765Z,86.36
2019-01-04T17:16:28.755Z,85.94
2019-01-04T17:18:56.708Z,85.94
2019-01-04T17:21:24.679Z,86.29
2019-01-04T17:23:52.648Z,85.92
2019-01-04T17:26:20.275Z,86.03
2019-01-04T17:28:48.178Z,86.31
2019-01-04T17:31:15.809Z,86.42
2019-01-04T17:33:43.706Z,86.12
2019-01-04T17:36:11.344Z,85.95
2019-01-04T17:38:39.236Z,86.06
2019-01-04T17:41:07.202Z,86.13
2019-01-04T17:43:35.178Z,86.22
2019-01-04T17:46:03.146Z,86.31
2019-01-04T17:48:30.770Z,85.83
2019-01-04T17:50:58.676Z,86.06
2019-01-04T17:53:26.643Z,86.08
2019-01-04T17:55:54.611Z,85.85
2019-01-04T17:58:22.587Z,86.03
2019-01-04T18:00:50.553Z,86.15
2019-01-04T18:03:18.521Z,85.57
2019-01-04T18:05:46.496Z,85.40
2019-01-04T18:08:14.508Z,85.39
2019-01-04T18:10:42.464Z,85.50
2019-01-04T18:13:10.402Z,85.08
2019-01-04T18:15:38.371Z,85.32
2019-01-04T18:18:06.009Z,85.36
2019-01-04T18:20:33.908Z,84.89
2019-01-04T18:23:01.551Z,84.82
2019-01-04T18:25:29.433Z,84.86
2019-01-04T18:27:57.402Z,84.80
2019-01-04T18:30:25.385Z,85.00
2019-01-04T18:32:53.355Z,85.46
2019-01-04T18:35:20.982Z,85.56
2019-01-04T18:37:48.972Z,85.89
2019-01-04T18:40:16.941Z,86.33
2019-01-04T18:42:44.906Z,86.56
2019-01-04T18:45:12.533Z,86.61
2019-01-04T18:47:40.172Z,86.21
2019-01-04T18:50:08.108Z,86.36
2019-01-04T18:52:36.071Z,86.36
2019-01-04T18:55:04.047Z,86.70
2019-01-04T18:57:31.679Z,87.01
2019-01-04T18:59:59.571Z,86.71
2019-01-04T19:02:27.203Z,86.50
2019-01-04T19:04:55.213Z,86.20
2019-01-04T19:07:23.172Z,86.11
2019-01-04T19:09:51.138Z,85.55
2019-01-04T19:12:19.111Z,85.70
2019-01-04T19:14:46.725Z,85.68
2019-01-04T19:17:14.638Z,85.59
2019-01-04T19:19:42.606Z,85.70
2019-01-04T19:22:10.240Z,85.17
2019-01-04T19:24:38.155Z,85.61
2019-01-04T19:27:06.111Z,85.86
2019-01-04T19:29:34.079Z,86.00
2019-01-04T19:32:02.046Z,86.37
2019-01-04T19:34:29.669Z,86.45
2019-01-04T19:36:57.296Z,86.53
2019-01-04T19:39:25.237Z,86.42
2019-01-04T19:41:53.215Z,86.28
2019-01-04T19:44:20.830Z,86.14
2019-01-04T19:46:48.738Z,85.86
2019-01-04T19:49:16.367Z,86.09
2019-01-04T19:51:44.279Z,85.96
2019-01-04T19:54:12.239Z,85.94
2019-01-04T19:56:40.213Z,86.15
2019-01-04T19:59:07.843Z,85.97
2019-01-04T20:01:35.471Z,86.08
2019-01-04T20:04:03.410Z,86.26
2019-01-04T20:06:40.180Z,85.91
2019-01-04T20:09:26.954Z,86.05
2019-01-04T20:12:13.733Z,86.00
2019-01-04T20:15:06.777Z,86.09
2019-01-04T20:17:59.507Z,86.11
2019-01-04T20:20:46.724Z,86.29
2019-01-04T20:23:40.807Z,86.31
2019-01-04T20:26:26.705Z,86.38
2019-01-04T20:29:24.485Z,86.21
2019-01-04T20:32:11.161Z,86.33
2019-01-04T20:35:13.145Z,86.16
2019-01-04T20:37:59.141Z,86.42
2019-01-04T20:41:04.683Z,86.33
2019-01-04T20:43:49.487Z,86.44
2019-01-04T20:46:33.192Z,86.27
2019-01-04T20:49:18.905Z,86.01
2019-01-04T20:52:04.875Z,86.29
2019-01-04T20:55:03.761Z,86.15
2019-01-04T20:57:50.776Z,85.90
2019-01-04T21:00:40.565Z,85.94
2019-01-04T21:03:27.248Z,85.77
2019-01-04T21:06:12.595Z,85.98
2019-01-04T21:09:02.632Z,85.88
2019-01-04T21:11:48.317Z,85.67
2019-01-04T21:14:34.001Z,85.49
2019-01-04T21:17:21.020Z,85.42
2019-01-04T21:20:21.396Z,85.36
2019-01-04T21:23:06.641Z,85.22
2019-01-04T21:25:55.171Z,85.03
2019-01-04T21:28:44.132Z,85.21
2019-01-04T21:31:26.335Z,85.16
2019-01-04T21:34:13.374Z,85.10
2019-01-04T21:37:06.410Z,85.04
2019-01-04T21:40:06.984Z,85.21
2019-01-04T21:42:55.089Z,85.26
2019-01-04T21:45:57.390Z,85.56
2019-01-04T21:48:48.789Z,85.81
2019-01-04T21:51:34.977Z,85.71
2019-01-04T21:54:34.076Z,85.67
2019-01-04T21:57:19.762Z,85.69
2019-01-04T22:00:15.395Z,85.55
2019-01-04T22:03:02.084Z,85.70
2019-01-04T22:05:47.390Z,85.61
2019-01-04T22:08:32.133Z,85.57
2019-01-04T22:11:17.722Z,85.71
2019-01-04T22:14:14.863Z,85.80
2019-01-04T22:17:14.271Z,85.99
2019-01-04T22:19:59.659Z,85.90
2019-01-04T22:22:58.974Z,86.01
2019-01-04T22:25:57.849Z,86.05
2019-01-04T22:28:39.988Z,85.99
2019-01-04T22:31:29.936Z,86.13
2019-01-04T22:34:14.391Z,86.04
2019-01-04T22:36:59.792Z,86.17
2019-01-04T22:39:45.561Z,86.33
2019-01-04T22:42:31.126Z,86.63
2019-01-04T22:45:32.725Z,86.58
2019-01-04T22:48:18.791Z,86.79
2019-01-04T22:51:21.397Z,86.80
2019-01-04T22:54:07.071Z,86.79
2019-01-04T22:57:01.265Z,86.72
2019-01-04T22:59:51.436Z,86.73
2019-01-04T23:02:37.224Z,86.94
2019-01-04T23:05:22.653Z,87.32
2019-01-04T23:08:08.791Z,87.30
2019-01-04T23:11:06.355Z,87.52
2019-01-04T23:13:50.198Z,87.67
2019-01-04T23:16:39.498Z,88.01
2019-01-04T23:19:31.944Z,88.06
2019-01-04T23:22:22.005Z,88.23
2019-01-04T23:25:07.694Z,88.35
2019-01-04T23:27:53.168Z,88.38
2019-01-04T23:30:38.131Z,88.32
2019-01-04T23:33:29.273Z,88.30
2019-01-04T23:36:15.033Z,88.31
2019-01-04T23:39:04.204Z,88.30
2019-01-04T23:41:55.517Z,88.22
2019-01-04T23:44:40.838Z,88.18
2019-01-04T23:47:30.755Z,88.17
2019-01-04T23:50:12.983Z,88.18
2019-01-04T23:53:06.453Z,88.23
2019-01-04T23:55:57.255Z,88.31
2019-01-04T23:58:49.901Z,88.53
